CYVQ

Norman Wells Airport

Norman Wells, Northwest Territories, Canada
METAR CYVQ 170700Z 29008KT 10SM -SN SCT037 BKN055 BKN110 M14/M16 A2931 RMK SC4SC2AC1 SLP934
Observed Flight Rules
Dec-17 @ 07:00 UTC (an hour ago) Visual Flight Rules
Wind Visibility Clouds Conditions
290° at 8 knots 10 miles
  • Scattered at 3,700' AGL
  • Broken at 5,500' AGL
  • Broken at 11,000' AGL
  • Light Snow
Temperatures Readings
Current -14°C / 7°F
Dewpoint -16°C / 3°F
Humidity 85%
Altimeter 29.31" Hg
Pressure 993.4 hPa
Elevation 74
METAR CYVQ 170700Z 29008KT 10SM -SN SCT037 BKN055 BKN110 M14/M16 A2931 RMK SC4SC2AC1 SLP934
Observed Flight Rules
Dec-17 @ 07:00 UTC
(an hour ago)
VFR
Wind Visibility
290° at 8 knots 10 miles
Clouds
  • Scattered at 3,700' AGL
  • Broken at 5,500' AGL
  • Broken at 11,000' AGL
Conditions
  • Light Snow
Temperature Dewpoint
-14°C / 7°F -16°C / 3°F
Humidity Altimeter Pressure
85% 29.31" Hg 993.4 hPa